Time;durP1;ratioP1;P1;durP2;ratioP2;P2;SDS_P1;SDS_P2;PMS_P1;PMS_P2;Temp;Humidity;BMP_temperature;BMP_pressure;BME280_temperature;BME280_humidity;BME280_pressure;Samples;Min_cycle;Max_cycle;Signal;HPM_P1;HPM_P2
2023/05/21 00:01:32;;;;;;;11.80;10.70;;;25.90;46.10;;;;;;5046571;28;20558;-48
2023/05/21 00:03:58;;;;;;;11.93;10.83;;;25.90;46.10;;;;;;5034522;28;20200;-47
2023/05/21 00:06:24;;;;;;;10.40;9.50;;;25.90;46.10;;;;;;5044282;28;20555;-47
2023/05/21 00:08:49;;;;;;;12.97;11.87;;;25.80;46.10;;;;;;5048728;28;20488;-46
2023/05/21 00:11:15;;;;;;;11.77;10.60;;;25.70;46.20;;;;;;5032022;28;20181;-46
2023/05/21 00:13:40;;;;;;;11.00;10.00;;;25.70;46.40;;;;;;5040058;28;20953;-48
2023/05/21 00:16:06;;;;;;;11.37;10.37;;;25.70;46.20;;;;;;5048175;28;20231;-47
2023/05/21 00:18:33;;;;;;;10.60;9.70;;;25.70;46.20;;;;;;5039690;28;20190;-47
2023/05/21 00:20:59;;;;;;;10.27;9.23;;;25.70;46.30;;;;;;5044343;28;20276;-47
2023/05/21 00:23:25;;;;;;;10.40;9.40;;;25.70;46.40;;;;;;5048217;28;20805;-46
2023/05/21 00:25:51;;;;;;;11.40;10.33;;;25.70;46.40;;;;;;5035165;28;20443;-47
2023/05/21 00:28:17;;;;;;;11.27;9.87;;;25.70;46.40;;;;;;5044970;28;20226;-46
2023/05/21 00:30:42;;;;;;;10.93;9.90;;;25.70;46.40;;;;;;5045674;28;20898;-50
2023/05/21 00:33:09;;;;;;;11.70;10.10;;;25.60;46.40;;;;;;5044199;28;20197;-50
2023/05/21 00:35:35;;;;;;;11.50;10.50;;;25.60;46.50;;;;;;5033980;28;20197;-47
2023/05/21 00:38:00;;;;;;;11.50;10.50;;;25.60;46.60;;;;;;5043166;28;20448;-46
2023/05/21 00:40:26;;;;;;;10.70;9.03;;;25.50;46.60;;;;;;5036738;28;20264;-49
2023/05/21 00:42:56;;;;;;;12.23;10.53;;;25.50;46.70;;;;;;5044049;28;20201;-47
2023/05/21 00:45:24;;;;;;;13.87;12.47;;;25.50;46.70;;;;;;5048529;28;20224;-48
2023/05/21 00:47:53;;;;;;;10.20;9.30;;;25.40;46.70;;;;;;5049793;28;20525;-47
2023/05/21 00:50:20;;;;;;;11.63;10.53;;;25.40;46.80;;;;;;5050718;28;20436;-47
2023/05/21 00:52:47;;;;;;;11.53;9.60;;;25.40;46.70;;;;;;5046747;28;20501;-48
2023/05/21 00:55:13;;;;;;;11.00;10.10;;;25.40;46.70;;;;;;5048024;28;20448;-47
2023/05/21 00:57:40;;;;;;;11.13;10.03;;;25.40;46.70;;;;;;5042850;28;20427;-47
2023/05/21 01:00:07;;;;;;;10.47;9.40;;;25.40;46.80;;;;;;5046022;28;20443;-46
2023/05/21 01:02:35;;;;;;;11.33;10.23;;;25.40;46.70;;;;;;5049621;28;20439;-49
2023/05/21 01:05:04;;;;;;;11.00;10.10;;;25.40;46.90;;;;;;5052038;28;20450;-47
2023/05/21 01:07:33;;;;;;;10.27;9.47;;;25.40;46.90;;;;;;5052017;28;20491;-47
2023/05/21 01:10:00;;;;;;;12.17;11.00;;;25.30;46.90;;;;;;5048813;28;20941;-47
2023/05/21 01:12:26;;;;;;;10.33;9.33;;;25.30;46.90;;;;;;5041502;28;20454;-47
2023/05/21 01:14:52;;;;;;;10.00;9.00;;;25.30;46.90;;;;;;5041746;28;20435;-47
2023/05/21 01:17:22;;;;;;;10.27;9.33;;;25.20;46.90;;;;;;5043258;28;20203;-53
2023/05/21 01:19:51;;;;;;;10.50;9.27;;;25.30;47.10;;;;;;5037281;28;20443;-47
2023/05/21 01:22:20;;;;;;;12.70;11.60;;;25.30;47.10;;;;;;5044317;28;20436;-47
2023/05/21 01:24:48;;;;;;;14.13;10.87;;;25.30;47.10;;;;;;5046268;28;20804;-47
2023/05/21 01:27:13;;;;;;;12.63;11.53;;;25.20;47.40;;;;;;5042208;28;20470;-49
2023/05/21 01:29:39;;;;;;;12.60;11.50;;;25.10;47.60;;;;;;5048194;28;20553;-48
2023/05/21 01:32:24;;;;;;;13.10;11.90;;;24.80;48.10;;;;;;5045777;28;20196;-48
2023/05/21 01:35:08;;;;;;;12.00;10.90;;;24.60;48.60;;;;;;5037086;28;20984;-48
2023/05/21 01:37:44;;;;;;;13.17;11.90;;;24.30;49.10;;;;;;5041871;28;20454;-50
2023/05/21 01:40:15;;;;;;;13.17;11.23;;;24.10;49.40;;;;;;5045306;28;20442;-48
2023/05/21 01:42:43;;;;;;;13.40;12.20;;;24.00;49.70;;;;;;5043822;28;20451;-47
2023/05/21 01:45:10;;;;;;;13.83;12.53;;;23.90;50.00;;;;;;5046881;28;20869;-47
2023/05/21 01:47:36;;;;;;;13.37;12.00;;;23.80;50.40;;;;;;5043670;28;20494;-48
2023/05/21 01:50:04;;;;;;;13.13;11.83;;;23.60;50.70;;;;;;5040246;28;20443;-47
2023/05/21 01:52:30;;;;;;;13.83;12.60;;;23.50;51.00;;;;;;5047420;28;20849;-48
2023/05/21 01:54:59;;;;;;;14.10;12.70;;;23.40;51.30;;;;;;5037800;28;20530;-52
2023/05/21 01:57:25;;;;;;;13.90;12.60;;;23.40;51.40;;;;;;5042323;28;20474;-47
2023/05/21 01:59:52;;;;;;;12.87;11.60;;;23.40;51.50;;;;;;5042309;28;20503;-47
2023/05/21 02:02:18;;;;;;;14.20;12.90;;;23.30;51.60;;;;;;5049141;28;20197;-47
2023/05/21 02:04:45;;;;;;;13.93;12.53;;;23.20;51.80;;;;;;5045298;28;20486;-51
2023/05/21 02:07:13;;;;;;;14.00;12.60;;;23.20;52.10;;;;;;5042646;28;20578;-47
2023/05/21 02:09:39;;;;;;;12.43;11.20;;;23.10;52.30;;;;;;5048630;28;20431;-47
2023/05/21 02:12:05;;;;;;;12.47;11.33;;;23.00;52.40;;;;;;5045487;28;20443;-47
2023/05/21 02:14:32;;;;;;;13.20;11.90;;;22.90;52.70;;;;;;5049668;28;20443;-47
2023/05/21 02:16:59;;;;;;;12.70;11.50;;;22.90;52.80;;;;;;5049492;28;20451;-47
2023/05/21 02:19:25;;;;;;;13.23;11.80;;;22.80;52.60;;;;;;5052088;28;20778;-47
2023/05/21 02:21:51;;;;;;;12.90;11.60;;;22.80;52.60;;;;;;5042524;28;20438;-47
2023/05/21 02:24:17;;;;;;;16.63;12.03;;;22.80;52.50;;;;;;5050946;28;20224;-47
2023/05/21 02:26:42;;;;;;;12.93;11.83;;;22.70;52.60;;;;;;5050716;28;20220;-47
2023/05/21 02:29:08;;;;;;;14.23;12.83;;;22.70;52.80;;;;;;5049286;28;20208;-48
2023/05/21 02:31:33;;;;;;;12.77;11.57;;;22.60;53.00;;;;;;5047423;28;20855;-50
2023/05/21 02:33:59;;;;;;;12.80;11.50;;;22.50;53.10;;;;;;5051358;28;20267;-48
2023/05/21 02:36:27;;;;;;;12.23;11.10;;;22.50;53.40;;;;;;5047766;28;20479;-47
2023/05/21 02:38:53;;;;;;;12.90;11.60;;;22.40;53.50;;;;;;5049407;28;20200;-48
2023/05/21 02:41:20;;;;;;;13.10;10.93;;;22.40;54.30;;;;;;5048043;28;20523;-47
2023/05/21 02:43:46;;;;;;;13.37;12.07;;;22.40;53.80;;;;;;5047910;28;20545;-48
2023/05/21 02:46:11;;;;;;;16.80;12.30;;;22.40;54.00;;;;;;5045739;28;20534;-47
2023/05/21 02:48:37;;;;;;;13.50;12.20;;;22.40;53.70;;;;;;5048692;28;20224;-47
2023/05/21 02:51:02;;;;;;;12.90;11.70;;;22.40;53.60;;;;;;5046195;28;20193;-48
2023/05/21 02:53:28;;;;;;;11.77;10.77;;;22.30;53.50;;;;;;5037939;28;20203;-49
2023/05/21 02:55:53;;;;;;;12.23;11.13;;;22.30;53.50;;;;;;5043841;28;20200;-47
2023/05/21 02:58:22;;;;;;;13.13;11.93;;;22.30;53.70;;;;;;5047948;28;20312;-47
2023/05/21 03:00:47;;;;;;;11.43;10.43;;;22.30;53.70;;;;;;5050315;28;20200;-47
2023/05/21 03:03:13;;;;;;;12.20;11.10;;;22.30;53.80;;;;;;5049545;28;20473;-46
2023/05/21 03:05:38;;;;;;;12.20;11.00;;;22.20;53.60;;;;;;5050189;28;20199;-48
2023/05/21 03:08:04;;;;;;;12.30;11.17;;;22.20;54.20;;;;;;5048487;28;20297;-48
2023/05/21 03:10:30;;;;;;;12.53;11.23;;;22.10;53.70;;;;;;5047121;28;20208;-46
2023/05/21 03:12:55;;;;;;;13.00;11.70;;;22.00;53.90;;;;;;5049634;28;20200;-47
2023/05/21 03:15:22;;;;;;;13.40;12.13;;;21.90;54.10;;;;;;5035754;28;20197;-49
2023/05/21 03:17:49;;;;;;;12.30;11.20;;;21.80;54.40;;;;;;5039039;28;20196;-46
2023/05/21 03:20:17;;;;;;;13.73;12.33;;;21.70;54.50;;;;;;5039873;28;20922;-46
2023/05/21 03:22:43;;;;;;;13.80;12.40;;;21.60;54.80;;;;;;5043564;28;20451;-46
2023/05/21 03:25:10;;;;;;;16.07;11.90;;;21.50;55.00;;;;;;5039888;28;20946;-47
2023/05/21 03:27:38;;;;;;;13.63;12.23;;;21.40;55.10;;;;;;5037140;28;20539;-46
2023/05/21 03:30:04;;;;;;;13.10;11.70;;;21.30;55.30;;;;;;5040696;28;20437;-47
2023/05/21 03:32:32;;;;;;;14.13;12.83;;;21.20;55.50;;;;;;5039043;28;20512;-48
2023/05/21 03:34:58;;;;;;;14.10;12.80;;;21.20;55.70;;;;;;5040707;28;20861;-46
2023/05/21 03:37:23;;;;;;;14.67;13.37;;;21.10;55.80;;;;;;5037312;28;20439;-46
2023/05/21 03:39:49;;;;;;;14.63;13.23;;;21.10;56.00;;;;;;5042428;28;20204;-49
2023/05/21 03:42:15;;;;;;;13.70;12.40;;;21.10;56.00;;;;;;5034675;28;20193;-45
2023/05/21 03:44:40;;;;;;;13.83;12.53;;;21.10;56.10;;;;;;5045529;28;20193;-46
2023/05/21 03:47:06;;;;;;;15.20;13.70;;;21.00;56.10;;;;;;5036085;28;20290;-46
2023/05/21 03:49:31;;;;;;;15.20;13.07;;;21.00;56.30;;;;;;5043751;28;20217;-48
2023/05/21 03:51:57;;;;;;;15.53;12.37;;;21.00;56.50;;;;;;5038277;28;20193;-46
2023/05/21 03:54:22;;;;;;;15.03;13.63;;;20.90;56.50;;;;;;5043634;28;20196;-47
2023/05/21 03:56:48;;;;;;;14.10;12.60;;;20.90;56.60;;;;;;5046358;28;20188;-46
2023/05/21 03:59:13;;;;;;;12.83;11.63;;;20.90;56.50;;;;;;5038844;28;20256;-48
2023/05/21 04:01:39;;;;;;;14.33;12.63;;;20.90;56.70;;;;;;5044621;28;20200;-45
2023/05/21 04:04:05;;;;;;;13.10;11.70;;;20.80;56.70;;;;;;5043780;28;20196;-47
2023/05/21 04:06:30;;;;;;;13.57;12.17;;;20.90;56.80;;;;;;5041409;28;20189;-46
2023/05/21 04:08:56;;;;;;;13.27;12.00;;;20.80;56.70;;;;;;5044363;28;20224;-47
2023/05/21 04:11:21;;;;;;;14.30;12.90;;;20.80;57.30;;;;;;5045866;28;20253;-48
2023/05/21 04:13:47;;;;;;;13.60;12.40;;;20.70;57.00;;;;;;5047594;28;20279;-49
2023/05/21 04:16:13;;;;;;;12.47;11.27;;;20.70;57.10;;;;;;5039656;28;20193;-49
2023/05/21 04:18:40;;;;;;;13.70;12.40;;;20.70;57.00;;;;;;5038120;28;20558;-46
2023/05/21 04:21:06;;;;;;;13.50;12.20;;;20.70;56.90;;;;;;5036399;28;20446;-47
2023/05/21 04:23:32;;;;;;;13.80;12.23;;;20.70;56.80;;;;;;5038640;28;20856;-46
2023/05/21 04:25:58;;;;;;;13.53;12.23;;;20.70;56.90;;;;;;5038620;28;20464;-46
2023/05/21 04:28:23;;;;;;;12.90;11.70;;;20.60;57.00;;;;;;5035836;28;20537;-49
2023/05/21 04:30:49;;;;;;;13.30;12.10;;;20.70;57.10;;;;;;5037575;28;20205;-51
2023/05/21 04:33:19;;;;;;;12.93;11.23;;;20.60;57.00;;;;;;5038932;28;20203;-46
2023/05/21 04:35:49;;;;;;;13.30;11.93;;;20.70;57.00;;;;;;5045815;28;20295;-46
2023/05/21 04:38:18;;;;;;;13.27;11.90;;;20.60;56.90;;;;;;5048441;28;20469;-46
2023/05/21 04:40:51;;;;;;;12.47;11.37;;;20.60;57.10;;;;;;5048605;28;20438;-46
2023/05/21 04:43:24;;;;;;;12.73;11.63;;;20.60;57.30;;;;;;5048934;28;20810;-47
2023/05/21 04:45:50;;;;;;;13.17;11.93;;;20.50;57.70;;;;;;5054061;28;20538;-46
2023/05/21 04:48:16;;;;;;;13.33;12.03;;;20.40;58.00;;;;;;5053199;28;20504;-46
2023/05/21 04:50:42;;;;;;;12.83;11.50;;;20.40;58.00;;;;;;5051498;28;20451;-47
2023/05/21 04:53:08;;;;;;;13.70;11.80;;;20.40;58.10;;;;;;5052695;28;20442;-50
2023/05/21 04:55:38;;;;;;;14.37;12.80;;;20.30;58.30;;;;;;5046759;28;20272;-47
2023/05/21 04:58:05;;;;;;;12.93;11.80;;;20.30;58.40;;;;;;5049751;28;20605;-48
2023/05/21 05:00:32;;;;;;;13.63;12.43;;;20.30;58.40;;;;;;5050748;28;20520;-48
2023/05/21 05:02:57;;;;;;;12.43;11.33;;;20.30;58.40;;;;;;5051960;28;20443;-47
2023/05/21 05:05:23;;;;;;;13.20;12.00;;;20.40;58.30;;;;;;5051065;28;20454;-46
2023/05/21 05:07:49;;;;;;;12.97;11.50;;;20.50;58.10;;;;;;5045213;28;20606;-48
2023/05/21 05:10:15;;;;;;;13.30;12.00;;;20.50;58.10;;;;;;5047957;28;20232;-46
2023/05/21 05:12:40;;;;;;;14.57;13.17;;;20.50;58.00;;;;;;5044003;28;20487;-46
2023/05/21 05:15:06;;;;;;;15.63;12.90;;;20.60;58.00;;;;;;5046644;28;20272;-46
2023/05/21 05:17:34;;;;;;;13.77;12.47;;;20.60;58.10;;;;;;5039037;28;20244;-48
2023/05/21 05:20:00;;;;;;;12.67;11.57;;;20.70;58.60;;;;;;5049436;28;20466;-50
2023/05/21 05:22:25;;;;;;;13.00;11.73;;;20.80;58.10;;;;;;5045586;28;20435;-49
2023/05/21 05:24:51;;;;;;;12.70;11.50;;;20.80;58.40;;;;;;5042578;28;20211;-47
2023/05/21 05:27:17;;;;;;;14.20;12.90;;;20.90;57.70;;;;;;5043746;28;20220;-50
2023/05/21 05:29:44;;;;;;;14.37;12.97;;;21.10;57.40;;;;;;5051768;28;20220;-46
2023/05/21 05:32:09;;;;;;;13.70;12.40;;;21.10;57.30;;;;;;5043679;28;20222;-46
2023/05/21 05:34:36;;;;;;;14.83;12.17;;;21.10;57.40;;;;;;5049888;28;20441;-51
2023/05/21 05:37:03;;;;;;;13.43;12.23;;;21.10;57.60;;;;;;5041047;28;20193;-47
2023/05/21 05:39:28;;;;;;;12.83;11.60;;;21.20;57.50;;;;;;5047374;28;20444;-47
2023/05/21 05:41:54;;;;;;;14.50;12.80;;;21.20;57.40;;;;;;5044750;28;20807;-47
2023/05/21 05:44:20;;;;;;;13.20;12.00;;;21.30;57.30;;;;;;5048872;28;20189;-48
2023/05/21 05:46:45;;;;;;;12.77;11.47;;;21.30;57.10;;;;;;5042742;28;20197;-46
2023/05/21 05:49:12;;;;;;;14.77;13.27;;;21.30;56.80;;;;;;5039331;28;20232;-48
2023/05/21 05:51:38;;;;;;;14.97;13.57;;;21.40;56.90;;;;;;5036528;28;21496;-47
2023/05/21 05:54:04;;;;;;;13.37;11.97;;;21.30;57.30;;;;;;5038409;28;20443;-47
2023/05/21 05:56:30;;;;;;;14.20;12.77;;;21.40;57.20;;;;;;5040418;28;20458;-47
2023/05/21 05:58:56;;;;;;;16.17;14.67;;;21.50;57.10;;;;;;5045904;28;20507;-47
2023/05/21 06:01:23;;;;;;;13.97;12.53;;;21.60;57.00;;;;;;5040092;28;20193;-47
2023/05/21 06:03:49;;;;;;;13.90;12.60;;;21.70;56.90;;;;;;5036726;28;20439;-48
2023/05/21 06:06:15;;;;;;;13.53;12.10;;;21.70;56.90;;;;;;5046791;28;20458;-47
2023/05/21 06:08:41;;;;;;;13.47;12.17;;;21.80;56.80;;;;;;5043195;28;20232;-51
2023/05/21 06:11:07;;;;;;;15.50;14.10;;;21.80;56.60;;;;;;5044207;28;20446;-49
2023/05/21 06:13:33;;;;;;;14.53;13.13;;;21.90;56.60;;;;;;5043195;28;20198;-47
2023/05/21 06:15:58;;;;;;;17.20;15.50;;;22.00;56.40;;;;;;5041912;28;20447;-47
2023/05/21 06:18:24;;;;;;;17.07;15.53;;;22.10;56.40;;;;;;5047178;28;20196;-49
2023/05/21 06:20:50;;;;;;;16.60;14.87;;;22.10;56.30;;;;;;5042671;28;20239;-48
2023/05/21 06:23:15;;;;;;;16.53;14.90;;;22.10;56.10;;;;;;5042412;28;20274;-47
2023/05/21 06:25:41;;;;;;;16.20;14.43;;;22.20;56.10;;;;;;5043230;28;20262;-48
2023/05/21 06:28:07;;;;;;;16.00;14.50;;;22.30;56.30;;;;;;5043040;28;20323;-48
2023/05/21 06:30:32;;;;;;;16.27;14.80;;;22.40;56.20;;;;;;5042197;28;20196;-51
2023/05/21 06:32:58;;;;;;;16.40;14.70;;;22.50;56.50;;;;;;5042785;28;20240;-47
2023/05/21 06:35:23;;;;;;;16.27;14.67;;;22.60;56.70;;;;;;5040340;28;20267;-46
2023/05/21 06:37:49;;;;;;;18.03;16.13;;;22.60;57.10;;;;;;5042503;28;20200;-47
2023/05/21 06:40:14;;;;;;;17.17;15.50;;;22.80;57.20;;;;;;5050224;28;20680;-48
2023/05/21 06:42:40;;;;;;;19.93;17.97;;;22.90;57.30;;;;;;5044607;28;20279;-49
2023/05/21 06:45:06;;;;;;;18.57;16.87;;;23.00;56.70;;;;;;5045235;28;20188;-47
2023/05/21 06:47:32;;;;;;;18.10;16.40;;;23.10;56.10;;;;;;5041019;28;20256;-48
2023/05/21 06:49:58;;;;;;;16.60;14.90;;;23.20;56.40;;;;;;5037431;28;20490;-50
2023/05/21 06:52:25;;;;;;;17.37;15.60;;;23.30;56.50;;;;;;5047409;28;20196;-47
2023/05/21 06:54:51;;;;;;;16.97;15.37;;;23.40;56.80;;;;;;5052933;28;20442;-47
2023/05/21 06:57:16;;;;;;;17.60;15.47;;;23.50;56.70;;;;;;5049531;28;20581;-51
2023/05/21 06:59:42;;;;;;;16.70;15.17;;;23.60;56.30;;;;;;5045733;28;20243;-47
2023/05/21 07:02:08;;;;;;;17.33;15.73;;;23.70;56.00;;;;;;5048025;28;20195;-47
2023/05/21 07:04:34;;;;;;;15.63;14.13;;;23.80;55.60;;;;;;5038135;28;20197;-48
2023/05/21 07:07:00;;;;;;;16.10;14.67;;;23.90;55.60;;;;;;5036044;28;20714;-47
2023/05/21 07:09:26;;;;;;;17.57;15.73;;;23.90;55.50;;;;;;5032544;28;20431;-48
2023/05/21 07:11:54;;;;;;;17.53;15.83;;;24.00;55.10;;;;;;5045077;28;20859;-50
2023/05/21 07:14:20;;;;;;;15.57;13.50;;;24.10;54.60;;;;;;5051159;28;20192;-48
2023/05/21 07:16:45;;;;;;;14.20;13.00;;;24.10;54.20;;;;;;5036424;28;20430;-48
2023/05/21 07:19:11;;;;;;;16.30;14.80;;;24.20;53.80;;;;;;5032100;28;20193;-48
2023/05/21 07:21:36;;;;;;;18.67;13.70;;;24.30;54.10;;;;;;5038830;28;20197;-48
2023/05/21 07:24:02;;;;;;;14.83;13.43;;;24.30;53.90;;;;;;5037344;28;20197;-53
2023/05/21 07:26:27;;;;;;;16.17;14.57;;;24.40;53.60;;;;;;5034918;28;20326;-52
2023/05/21 07:28:53;;;;;;;12.90;11.60;;;24.40;53.20;;;;;;5050222;28;20271;-52
2023/05/21 07:31:19;;;;;;;14.27;13.07;;;24.40;52.30;;;;;;5049421;28;20585;-54
2023/05/21 07:33:44;;;;;;;14.40;12.90;;;24.40;51.70;;;;;;5051482;28;20204;-53
2023/05/21 07:36:10;;;;;;;13.20;12.00;;;24.50;51.80;;;;;;5051967;28;20216;-53
2023/05/21 07:38:35;;;;;;;14.07;12.70;;;24.50;52.10;;;;;;5050011;28;20193;-53
2023/05/21 07:41:01;;;;;;;12.90;11.70;;;24.60;51.30;;;;;;5051292;28;20197;-54
2023/05/21 07:43:26;;;;;;;13.43;12.23;;;24.70;51.60;;;;;;5045582;28;20746;-53
2023/05/21 07:45:52;;;;;;;13.43;12.23;;;24.70;51.30;;;;;;5043801;28;20196;-53
2023/05/21 07:48:17;;;;;;;13.90;12.80;;;24.80;51.10;;;;;;5051453;28;20224;-52
2023/05/21 07:50:43;;;;;;;13.13;11.83;;;24.80;50.30;;;;;;5051890;28;20272;-53
2023/05/21 07:53:09;;;;;;;13.60;12.30;;;24.90;50.40;;;;;;5049828;28;20226;-51
2023/05/21 07:55:35;;;;;;;13.47;12.17;;;25.00;50.70;;;;;;5050939;28;20439;-53
2023/05/21 07:58:01;;;;;;;14.70;13.30;;;25.00;50.60;;;;;;5051105;28;20314;-51
2023/05/21 08:00:26;;;;;;;13.97;12.47;;;25.10;52.40;;;;;;5049493;28;20217;-53
2023/05/21 08:02:52;;;;;;;12.87;11.77;;;25.10;51.70;;;;;;5032504;28;20225;-51
2023/05/21 08:05:18;;;;;;;11.57;10.37;;;25.10;50.70;;;;;;5046937;28;20244;-52
2023/05/21 08:07:44;;;;;;;12.60;11.43;;;25.20;50.00;;;;;;5043418;28;20297;-50
2023/05/21 08:10:09;;;;;;;11.97;10.90;;;25.30;49.90;;;;;;5046024;28;20447;-53
2023/05/21 08:12:35;;;;;;;11.00;10.10;;;25.40;50.00;;;;;;5044770;28;20196;-55
2023/05/21 08:15:01;;;;;;;11.00;10.10;;;25.50;49.70;;;;;;5050388;28;20200;-49
2023/05/21 08:17:29;;;;;;;11.63;8.77;;;25.40;47.60;;;;;;5051465;28;20192;-52
2023/05/21 08:19:55;;;;;;;10.10;9.10;;;25.40;47.00;;;;;;5049359;28;20208;-47
2023/05/21 08:22:20;;;;;;;10.70;9.80;;;25.40;46.30;;;;;;5049851;28;20443;-52
2023/05/21 08:24:47;;;;;;;13.00;8.90;;;25.20;46.40;;;;;;5045228;28;20197;-52
2023/05/21 08:27:14;;;;;;;9.80;8.60;;;25.40;47.10;;;;;;5041791;28;20212;-48
2023/05/21 08:29:40;;;;;;;10.43;9.40;;;25.50;47.10;;;;;;5048689;28;20482;-52
2023/05/21 08:32:05;;;;;;;9.63;8.37;;;25.10;46.60;;;;;;5048553;28;20478;-50
2023/05/21 08:34:31;;;;;;;10.10;9.13;;;25.40;46.10;;;;;;5040880;28;21219;-48
2023/05/21 08:36:56;;;;;;;9.40;8.60;;;25.60;46.40;;;;;;5046687;28;20192;-52
2023/05/21 08:39:22;;;;;;;10.50;9.40;;;25.50;46.10;;;;;;5042643;28;20196;-50
2023/05/21 08:41:52;;;;;;;10.60;9.60;;;25.50;45.70;;;;;;5037378;28;20193;-53
2023/05/21 08:44:20;;;;;;;10.90;10.00;;;25.70;45.20;;;;;;5035643;28;20659;-49
2023/05/21 08:46:49;;;;;;;10.17;9.33;;;25.80;45.30;;;;;;5043140;28;20474;-51
2023/05/21 08:49:17;;;;;;;10.47;9.43;;;25.90;45.70;;;;;;5045088;28;20489;-51
2023/05/21 08:51:45;;;;;;;10.80;9.70;;;25.80;45.60;;;;;;5044896;28;20530;-47
2023/05/21 08:54:12;;;;;;;10.03;9.23;;;25.70;46.10;;;;;;5042858;28;20469;-51
2023/05/21 08:56:44;;;;;;;10.73;9.83;;;25.90;46.70;;;;;;5046283;28;20473;-50
2023/05/21 08:59:11;;;;;;;10.67;9.80;;;26.10;47.10;;;;;;5043272;28;20477;-50
2023/05/21 09:01:40;;;;;;;10.53;9.63;;;26.30;46.20;;;;;;5044195;28;20526;-52
2023/05/21 09:04:07;;;;;;;10.60;9.60;;;26.40;46.00;;;;;;5039588;28;20450;-50
2023/05/21 09:06:32;;;;;;;10.57;9.50;;;26.50;45.70;;;;;;5039605;28;20435;-52
2023/05/21 09:09:26;;;;;;;10.50;9.50;;;26.60;45.20;;;;;;5037298;28;20491;-47
2023/05/21 09:11:52;;;;;;;10.60;9.60;;;26.80;45.10;;;;;;5009645;28;20212;-49
2023/05/21 09:14:19;;;;;;;10.67;9.77;;;26.90;45.50;;;;;;5047156;28;20976;-51
2023/05/21 09:16:48;;;;;;;10.83;9.93;;;27.00;46.30;;;;;;5042660;28;20624;-52
2023/05/21 09:19:14;;;;;;;10.83;9.83;;;27.10;45.10;;;;;;5038427;28;20949;-48
2023/05/21 09:21:40;;;;;;;12.00;10.80;;;27.30;45.30;;;;;;5041459;28;20451;-48
2023/05/21 09:24:08;;;;;;;10.40;9.40;;;27.50;46.30;;;;;;5035138;28;20224;-52
2023/05/21 09:26:33;;;;;;;9.93;8.97;;;27.80;46.30;;;;;;5041670;28;20196;-53
2023/05/21 09:28:59;;;;;;;10.30;9.47;;;28.00;45.40;;;;;;5048507;28;20957;-49
2023/05/21 09:31:26;;;;;;;10.37;9.50;;;28.20;45.10;;;;;;5048463;28;20236;-53
2023/05/21 09:33:52;;;;;;;9.83;8.83;;;28.40;44.00;;;;;;5045866;28;20446;-49
2023/05/21 09:36:19;;;;;;;8.83;8.10;;;28.70;44.70;;;;;;5051945;28;20442;-50
2023/05/21 09:38:46;;;;;;;8.53;7.93;;;28.90;44.60;;;;;;5047122;28;20283;-49
2023/05/21 09:41:12;;;;;;;10.93;8.70;;;29.10;42.80;;;;;;5036109;28;20434;-50
2023/05/21 09:43:42;;;;;;;9.90;9.00;;;29.40;41.30;;;;;;5041230;28;20526;-49
2023/05/21 09:46:08;;;;;;;10.07;9.17;;;29.50;41.80;;;;;;5044234;28;20448;-50
2023/05/21 09:48:41;;;;;;;10.33;9.13;;;29.60;42.30;;;;;;5045174;28;20490;-51
2023/05/21 09:51:13;;;;;;;10.70;9.70;;;29.80;42.00;;;;;;5052854;28;20310;-53
2023/05/21 09:53:56;;;;;;;11.00;10.00;;;30.00;41.40;;;;;;5050340;28;20918;-50
2023/05/21 09:56:24;;;;;;;11.20;10.20;;;30.10;41.40;;;;;;5032538;28;20489;-52
2023/05/21 09:58:59;;;;;;;10.03;9.03;;;30.20;42.80;;;;;;5050249;28;20561;-48
2023/05/21 10:01:25;;;;;;;10.03;9.23;;;30.40;41.30;;;;;;5053745;28;20442;-52
2023/05/21 10:03:56;;;;;;;11.00;10.10;;;30.40;39.50;;;;;;5052328;28;20965;-53
2023/05/21 10:06:27;;;;;;;10.90;10.00;;;30.50;40.50;;;;;;5052932;28;20546;-49
2023/05/21 10:08:55;;;;;;;9.70;9.00;;;30.60;39.80;;;;;;5047557;28;20487;-48
2023/05/21 10:11:30;;;;;;;11.03;9.90;;;30.80;39.50;;;;;;5050922;28;20443;-48
2023/05/21 10:14:08;;;;;;;10.13;9.33;;;30.90;40.20;;;;;;5051470;28;20435;-51
2023/05/21 10:16:35;;;;;;;10.53;9.63;;;31.00;38.60;;;;;;5042619;28;20474;-51
2023/05/21 10:19:01;;;;;;;9.43;8.63;;;31.20;38.20;;;;;;5052027;28;20446;-49
2023/05/21 10:21:27;;;;;;;9.87;9.13;;;31.20;39.50;;;;;;5051817;28;20435;-53
2023/05/21 10:23:57;;;;;;;9.97;9.17;;;31.40;40.40;;;;;;5051902;28;20814;-47
2023/05/21 10:26:23;;;;;;;10.07;8.77;;;31.60;37.90;;;;;;5051190;28;20217;-51
2023/05/21 10:28:55;;;;;;;9.97;9.23;;;31.70;37.60;;;;;;5050298;28;20570;-48
2023/05/21 10:31:22;;;;;;;9.23;8.43;;;31.80;37.80;;;;;;5049137;28;20476;-49
2023/05/21 10:33:48;;;;;;;9.70;8.90;;;31.90;38.40;;;;;;5053154;28;20950;-47
2023/05/21 10:36:17;;;;;;;9.50;8.70;;;32.00;38.50;;;;;;5050920;28;20440;-50
2023/05/21 10:38:43;;;;;;;9.70;8.97;;;32.10;38.30;;;;;;5051106;28;20561;-53
2023/05/21 10:41:10;;;;;;;10.30;9.40;;;32.20;37.80;;;;;;5051418;28;20447;-48
2023/05/21 10:43:55;;;;;;;9.67;8.90;;;32.30;37.20;;;;;;5049867;28;20533;-49
2023/05/21 10:46:52;;;;;;;9.00;8.17;;;32.40;37.30;;;;;;5051096;28;20493;-49
2023/05/21 10:49:29;;;;;;;9.20;8.50;;;32.50;36.00;;;;;;5050955;28;20485;-52
2023/05/21 10:52:13;;;;;;;8.83;8.13;;;32.30;35.00;;;;;;5044439;28;20502;-49
2023/05/21 10:55:28;;;;;;;8.40;7.70;;;32.10;34.20;;;;;;5040144;28;20442;-50
2023/05/21 10:58:30;;;;;;;7.87;7.27;;;31.60;35.40;;;;;;4985438;28;20484;-47
2023/05/21 11:00:57;;;;;;;9.33;8.63;;;31.70;36.10;;;;;;5047073;28;20961;-51
2023/05/21 11:03:24;;;;;;;8.77;7.87;;;31.90;35.70;;;;;;5043739;28;20910;-50
2023/05/21 11:05:56;;;;;;;8.00;7.43;;;32.00;35.60;;;;;;5049187;28;20530;-48
2023/05/21 11:08:26;;;;;;;8.57;7.87;;;32.10;35.40;;;;;;5050414;28;20486;-52
2023/05/21 11:10:57;;;;;;;7.90;7.20;;;32.00;34.30;;;;;;5044094;28;20924;-51
2023/05/21 11:13:24;;;;;;;7.63;7.03;;;31.20;36.60;;;;;;5032439;28;20479;-49
2023/05/21 11:16:00;;;;;;;7.67;6.80;;;31.50;35.90;;;;;;5041045;28;20582;-48
2023/05/21 11:18:34;;;;;;;7.90;7.20;;;31.70;34.90;;;;;;5050260;28;20431;-49
2023/05/21 11:21:09;;;;;;;6.70;6.20;;;32.00;33.60;;;;;;5034415;28;21006;-51
2023/05/21 11:23:49;;;;;;;7.50;6.90;;;31.90;33.80;;;;;;5050954;28;20455;-49
2023/05/21 11:26:21;;;;;;;7.50;6.90;;;32.20;32.60;;;;;;5050164;28;20488;-49
2023/05/21 11:29:06;;;;;;;7.37;6.87;;;32.30;32.30;;;;;;5049925;28;20574;-50
2023/05/21 11:31:39;;;;;;;7.13;6.63;;;31.30;33.10;;;;;;5045728;28;20447;-48
2023/05/21 11:34:27;;;;;;;7.73;6.90;;;31.40;34.00;;;;;;5040978;28;20451;-51
2023/05/21 11:37:26;;;;;;;8.53;6.90;;;31.80;32.60;;;;;;5047687;28;20941;-48
2023/05/21 11:39:52;;;;;;;7.00;6.30;;;31.00;34.30;;;;;;5046036;28;20965;-52
2023/05/21 11:42:42;;;;;;;7.30;6.70;;;31.10;34.70;;;;;;5047503;28;20443;-48
2023/05/21 11:45:08;;;;;;;7.07;6.47;;;31.50;33.50;;;;;;5028737;28;20205;-48
2023/05/21 11:47:34;;;;;;;6.33;5.80;;;31.80;32.40;;;;;;5046556;28;20508;-48
2023/05/21 11:50:02;;;;;;;6.97;6.30;;;31.90;32.20;;;;;;5050888;28;21298;-52
2023/05/21 11:52:29;;;;;;;6.80;6.30;;;32.00;32.20;;;;;;5047430;28;20443;-48
2023/05/21 11:54:56;;;;;;;7.40;6.70;;;32.10;32.10;;;;;;5045644;28;20442;-48
2023/05/21 11:57:25;;;;;;;7.60;6.30;;;32.10;33.00;;;;;;5050242;28;20820;-50
2023/05/21 11:59:51;;;;;;;7.37;6.70;;;32.10;32.50;;;;;;5043903;28;20978;-58
2023/05/21 12:02:21;;;;;;;7.17;6.43;;;32.30;31.50;;;;;;5046216;28;20535;-49
2023/05/21 12:04:48;;;;;;;6.90;6.40;;;32.10;32.30;;;;;;5048362;28;20224;-51
2023/05/21 12:07:18;;;;;;;7.43;6.73;;;32.10;32.20;;;;;;5048069;28;20839;-49
2023/05/21 12:09:45;;;;;;;7.13;6.40;;;32.10;32.30;;;;;;5045446;28;20489;-50
2023/05/21 12:12:14;;;;;;;7.90;7.30;;;31.70;32.40;;;;;;5046926;28;20451;-49
2023/05/21 12:14:46;;;;;;;7.53;6.73;;;31.00;33.40;;;;;;5047822;28;20439;-49
2023/05/21 12:17:14;;;;;;;7.17;6.50;;;31.00;33.80;;;;;;5050424;28;20455;-49
2023/05/21 12:19:40;;;;;;;6.43;5.93;;;31.30;32.20;;;;;;5049135;28;20443;-49
2023/05/21 12:22:06;;;;;;;6.60;6.10;;;31.30;32.20;;;;;;5039309;28;20503;-49
2023/05/21 12:24:33;;;;;;;7.30;6.70;;;31.50;31.20;;;;;;5047201;28;20454;-50
2023/05/21 12:27:00;;;;;;;7.17;6.57;;;31.30;32.20;;;;;;5050921;28;20538;-50
2023/05/21 12:29:30;;;;;;;6.50;5.90;;;31.30;31.90;;;;;;5051002;28;20495;-50
2023/05/21 12:32:00;;;;;;;7.20;6.63;;;31.20;32.80;;;;;;5050428;28;20447;-55
2023/05/21 12:34:43;;;;;;;7.23;6.53;;;31.30;32.40;;;;;;5048617;28;20446;-49
2023/05/21 12:37:16;;;;;;;6.80;6.20;;;31.60;32.20;;;;;;5039758;28;20542;-51